Time;durP1;ratioP1;P1;durP2;ratioP2;P2;SDS_P1;SDS_P2;PMS_P1;PMS_P2;Temp;Humidity;BMP_temperature;BMP_pressure;BME280_temperature;BME280_humidity;BME280_pressure;Samples;Min_cycle;Max_cycle;Signal;HPM_P1;HPM_P2
2021/12/14 00:00:47;;;;;;;13.03;9.85;;;;;;;1.65;84.92;100256.48;1713803;82;21430;-61
2021/12/14 00:03:16;;;;;;;14.05;10.30;;;;;;;1.74;84.97;100253.48;1708153;82;21556;-59
2021/12/14 00:05:43;;;;;;;12.65;10.08;;;;;;;1.80;84.82;100256.96;1720467;82;21439;-58
2021/12/14 00:08:12;;;;;;;14.47;10.60;;;;;;;1.74;85.00;100258.67;1705392;82;21716;-58
2021/12/14 00:13:19;;;;;;;13.30;9.98;;;;;;;1.67;85.40;100265.13;1709354;82;21546;-58
2021/12/14 00:15:39;;;;;;;11.05;9.93;;;;;;;1.71;85.10;100262.57;1720912;82;21487;-58
2021/12/14 00:18:10;;;;;;;12.10;9.08;;;;;;;1.81;84.85;100262.56;1707794;82;21574;-58
2021/12/14 00:20:43;;;;;;;12.58;10.43;;;;;;;1.78;85.06;100261.28;1710363;82;21512;-58
2021/12/14 00:25:51;;;;;;;12.63;9.45;;;;;;;1.69;85.03;100263.41;1710735;82;21433;-58
2021/12/14 00:28:22;;;;;;;11.33;9.38;;;;;;;1.71;85.06;100271.64;1713323;82;21549;-58
2021/12/14 00:30:50;;;;;;;11.18;9.40;;;;;;;1.81;84.66;100267.75;1718476;82;21033;-58
2021/12/14 00:33:21;;;;;;;11.55;10.20;;;;;;;1.84;84.71;100266.48;1707489;82;21697;-59
2021/12/14 00:35:48;;;;;;;12.07;9.30;;;;;;;1.84;84.61;100267.34;1717720;82;21467;-58
2021/12/14 00:38:21;;;;;;;10.20;8.88;;;;;;;1.77;84.47;100264.28;1712442;82;21497;-58
2021/12/14 00:40:50;;;;;;;10.38;8.90;;;;;;;1.70;84.33;100263.42;1705980;82;21605;-58
2021/12/14 00:43:17;;;;;;;8.98;7.83;;;;;;;1.65;84.53;100266.41;1711083;82;21493;-58
2021/12/14 00:45:45;;;;;;;9.60;8.63;;;;;;;1.72;84.38;100258.23;1714444;82;21799;-58
2021/12/14 00:48:13;;;;;;;9.00;8.10;;;;;;;1.74;84.42;100260.41;1707573;82;21423;-58
2021/12/14 00:50:44;;;;;;;12.05;9.48;;;;;;;1.67;84.29;100259.50;1722033;82;21423;-59
2021/12/14 00:53:12;;;;;;;12.07;8.68;;;;;;;1.58;84.29;100262.50;1738112;81;21501;-58
2021/12/14 00:55:42;;;;;;;14.75;8.58;;;;;;;1.46;84.59;100253.81;1730752;82;21475;-59
2021/12/14 00:58:12;;;;;;;9.63;8.35;;;;;;;1.47;84.54;100259.45;1721028;82;22104;-58
2021/12/14 01:00:46;;;;;;;11.00;7.97;;;;;;;1.49;84.67;100252.55;1733046;82;21511;-59
2021/12/14 01:03:14;;;;;;;10.35;8.88;;;;;;;1.51;84.56;100258.59;1729821;82;21507;-58
2021/12/14 01:05:45;;;;;;;11.70;9.23;;;;;;;1.43;84.68;100255.53;1736476;82;21403;-59
2021/12/14 01:08:16;;;;;;;10.85;8.35;;;;;;;1.33;84.87;100253.33;1706426;82;21467;-58
2021/12/14 01:11:01;;;;;;;11.85;8.90;;;;;;;1.31;85.05;100258.94;1727195;82;21449;-58
2021/12/14 01:13:27;;;;;;;12.15;8.33;;;;;;;1.40;85.29;100260.28;1724901;82;21515;-58
2021/12/14 01:16:12;;;;;;;10.75;9.03;;;;;;;1.48;85.34;100259.87;1722368;82;21538;-58
2021/12/14 01:21:28;;;;;;;10.28;8.93;;;;;;;1.44;85.00;100272.82;1729504;82;21544;-59
2021/12/14 01:23:47;;;;;;;11.55;8.85;;;;;;;1.42;85.19;100275.41;1724956;82;21737;-59
2021/12/14 01:26:18;;;;;;;12.45;8.83;;;;;;;1.46;84.97;100274.55;1719410;82;21528;-59
2021/12/14 01:28:46;;;;;;;10.78;8.68;;;;;;;1.50;85.00;100280.17;1725023;82;21551;-58
2021/12/14 01:31:25;;;;;;;10.08;8.80;;;;;;;1.50;84.94;100275.00;1727818;82;21487;-58
2021/12/14 01:33:53;;;;;;;10.18;8.83;;;;;;;1.45;84.96;100271.54;1734653;82;21509;-58
2021/12/14 01:36:37;;;;;;;12.93;9.15;;;;;;;1.42;85.13;100271.95;1722192;82;21931;-59
2021/12/14 01:41:41;;;;;;;10.85;9.23;;;;;;;1.48;84.95;100275.42;1734433;82;28761;-58
2021/12/14 01:44:08;;;;;;;10.28;9.05;;;;;;;1.48;84.98;100271.53;1723594;82;21431;-59
2021/12/14 01:46:47;;;;;;;10.85;8.75;;;;;;;1.45;85.12;100274.13;1727864;82;21403;-59
2021/12/14 01:49:18;;;;;;;13.80;8.65;;;;;;;1.43;85.10;100278.84;1699860;82;22130;-59
2021/12/14 01:51:50;;;;;;;10.80;8.68;;;;;;;1.35;85.08;100280.97;1720698;82;21001;-58
2021/12/14 01:54:23;;;;;;;10.80;8.18;;;;;;;1.41;85.34;100290.50;1725422;82;21540;-58
2021/12/14 01:56:50;;;;;;;11.00;8.85;;;;;;;1.51;85.18;100287.55;1729296;82;21408;-58
2021/12/14 01:59:23;;;;;;;10.55;9.25;;;;;;;1.53;85.07;100285.38;1722301;82;21505;-58
2021/12/14 02:03:59;;;;;;;12.00;9.48;;;;;;;1.52;84.95;100284.94;1775744;78;23169;-60
2021/12/14 02:06:30;;;;;;;9.90;8.58;;;;;;;1.43;85.07;100284.92;1723513;81;21518;-58
2021/12/14 02:09:08;;;;;;;9.93;8.53;;;;;;;1.52;85.08;100278.45;1714596;81;21845;-58
2021/12/14 02:11:40;;;;;;;10.80;8.50;;;;;;;1.64;84.85;100276.77;1713824;82;21422;-59
2021/12/14 02:14:07;;;;;;;10.72;8.78;;;;;;;1.61;84.76;100278.08;1695334;83;21430;-59
2021/12/14 02:16:34;;;;;;;13.50;10.35;;;;;;;1.58;84.75;100276.31;1715537;81;21442;-59
2021/12/14 02:19:05;;;;;;;10.90;8.63;;;;;;;1.58;84.75;100279.34;1691269;83;21576;-59
2021/12/14 02:21:32;;;;;;;11.08;9.15;;;;;;;1.61;84.50;100275.05;1697008;83;21835;-59
2021/12/14 02:24:00;;;;;;;10.40;8.47;;;;;;;1.65;84.11;100272.89;1706986;82;21710;-61
2021/12/14 02:26:30;;;;;;;11.73;8.98;;;;;;;1.65;84.02;100269.00;1706190;82;21574;-61
2021/12/14 02:29:02;;;;;;;11.43;8.53;;;;;;;1.60;83.97;100273.33;1701767;82;21482;-59
2021/12/14 02:31:29;;;;;;;9.85;8.20;;;;;;;1.53;84.12;100272.87;1703226;82;21447;-59
2021/12/14 02:33:57;;;;;;;10.18;8.08;;;;;;;1.50;84.22;100272.84;1702394;82;21498;-59
2021/12/14 02:36:40;;;;;;;9.08;8.15;;;;;;;1.49;84.06;100273.28;1706912;82;21514;-59
2021/12/14 02:39:23;;;;;;;11.55;8.38;;;;;;;1.52;83.76;100266.79;1697303;82;21472;-59
2021/12/14 02:41:55;;;;;;;11.63;8.53;;;;;;;1.52;83.95;100262.05;1711823;81;21458;-59
2021/12/14 02:44:22;;;;;;;10.25;7.83;;;;;;;1.44;83.95;100261.16;1652508;84;21536;-58
2021/12/14 02:46:56;;;;;;;8.73;7.08;;;;;;;1.40;84.30;100262.02;1696481;82;21734;-59
2021/12/14 02:49:28;;;;;;;9.53;7.75;;;;;;;1.41;84.19;100272.80;1703589;82;21103;-59
2021/12/14 02:52:07;;;;;;;9.68;7.42;;;;;;;1.44;84.07;100272.82;1707539;82;21573;-58
2021/12/14 02:54:39;;;;;;;8.48;7.53;;;;;;;1.51;84.09;100275.45;1708821;81;21598;-58
2021/12/14 02:57:13;;;;;;;8.48;7.35;;;;;;;1.54;83.98;100279.77;1703479;83;21570;-59
2021/12/14 02:59:42;;;;;;;10.10;8.05;;;;;;;1.51;83.93;100276.74;1665031;84;21806;-59
2021/12/14 03:02:15;;;;;;;9.93;7.47;;;;;;;1.48;83.70;100281.05;1700903;82;21596;-59
2021/12/14 03:04:49;;;;;;;8.03;7.10;;;;;;;1.45;83.79;100283.20;1688619;83;21455;-59
2021/12/14 03:07:18;;;;;;;8.78;7.87;;;;;;;1.51;83.86;100278.03;1710505;81;21530;-58
2021/12/14 03:10:06;;;;;;;9.80;7.35;;;;;;;1.57;83.77;100282.38;1722020;81;21467;-58
2021/12/14 03:12:37;;;;;;;8.73;7.37;;;;;;;1.55;83.87;100286.25;1732711;82;21719;-58
2021/12/14 03:15:21;;;;;;;8.53;7.40;;;;;;;1.55;83.91;100286.70;1725405;81;21680;-59
2021/12/14 03:17:51;;;;;;;9.50;7.55;;;;;;;1.51;83.89;100284.95;1728602;81;21487;-59
2021/12/14 03:20:27;;;;;;;6.70;5.95;;;;;;;1.52;83.64;100288.83;1727480;81;21479;-58
2021/12/14 03:23:02;;;;;;;7.65;6.85;;;;;;;1.55;83.67;100290.58;1727747;81;21486;-59
2021/12/14 03:25:31;;;;;;;9.28;7.60;;;;;;;1.55;83.85;100284.96;1723605;81;21791;-58
2021/12/14 03:27:59;;;;;;;8.00;7.10;;;;;;;1.52;83.69;100285.38;1730710;81;21554;-59
2021/12/14 03:30:31;;;;;;;10.50;8.00;;;;;;;1.44;83.67;100289.23;1682811;82;21508;-59
2021/12/14 03:33:17;;;;;;;8.20;6.80;;;;;;;1.41;84.04;100289.20;1691846;84;21642;-59
2021/12/14 03:35:58;;;;;;;7.97;6.85;;;;;;;1.52;84.04;100298.33;1725384;81;21431;-58
2021/12/14 03:38:42;;;;;;;7.95;7.08;;;;;;;1.55;83.78;100295.33;1723420;81;21740;-59
2021/12/14 03:41:14;;;;;;;8.53;7.62;;;;;;;1.52;83.88;100291.85;1720166;81;21566;-59
2021/12/14 03:43:47;;;;;;;9.38;7.37;;;;;;;1.48;83.75;100288.81;1693698;84;21503;-59
2021/12/14 03:46:15;;;;;;;8.85;7.28;;;;;;;1.39;83.78;100287.04;1730026;80;21479;-59
2021/12/14 03:48:42;;;;;;;9.58;8.00;;;;;;;1.42;84.00;100288.36;1722067;81;21527;-59
2021/12/14 03:51:09;;;;;;;10.18;7.70;;;;;;;1.49;83.83;100287.53;1728254;81;21813;-61
2021/12/14 03:53:36;;;;;;;7.70;6.85;;;;;;;1.46;83.80;100285.36;1729635;81;21503;-59
2021/12/14 03:56:05;;;;;;;8.10;7.20;;;;;;;1.39;83.90;100289.62;1726159;81;21516;-59
2021/12/14 03:58:37;;;;;;;9.28;6.58;;;;;;;1.32;84.00;100291.78;1729071;82;21440;-60
2021/12/14 04:01:11;;;;;;;7.92;6.83;;;;;;;1.31;84.36;100296.06;1695560;84;21554;-59
2021/12/14 04:03:40;;;;;;;9.08;7.22;;;;;;;1.34;84.39;100298.69;1727514;81;21812;-59
2021/12/14 04:06:12;;;;;;;8.48;7.05;;;;;;;1.42;84.08;100296.13;1733852;80;21034;-58
2021/12/14 04:08:40;;;;;;;7.67;6.97;;;;;;;1.42;84.26;100292.25;1735010;81;21658;-59
2021/12/14 04:11:08;;;;;;;7.87;6.97;;;;;;;1.40;84.11;100295.27;1731594;82;21477;-59
2021/12/14 04:13:41;;;;;;;7.70;7.00;;;;;;;1.35;84.11;100299.11;1728495;80;21558;-59
2021/12/14 04:16:12;;;;;;;7.83;6.83;;;;;;;1.30;84.12;100299.94;1728486;82;21845;-59
2021/12/14 04:18:40;;;;;;;6.90;6.22;;;;;;;1.28;84.12;100312.02;1736794;81;21475;-59
2021/12/14 04:21:07;;;;;;;8.03;6.87;;;;;;;1.25;84.27;100305.55;1731625;81;21507;-58
2021/12/14 04:23:38;;;;;;;7.62;6.78;;;;;;;1.26;84.70;100308.16;1739460;82;21522;-58
2021/12/14 04:26:07;;;;;;;7.55;6.70;;;;;;;1.28;84.95;100308.14;1732700;82;21492;-58
2021/12/14 04:28:40;;;;;;;7.78;6.85;;;;;;;1.28;84.78;100306.84;1735274;81;21851;-57
2021/12/14 04:31:08;;;;;;;7.80;7.00;;;;;;;1.31;84.86;100302.98;1728902;80;21425;-58
2021/12/14 04:33:38;;;;;;;7.30;6.35;;;;;;;1.39;84.66;100305.61;1739157;81;21534;-59
2021/12/14 04:36:10;;;;;;;7.33;6.70;;;;;;;1.45;84.24;100303.05;1731454;82;21495;-58
2021/12/14 04:38:47;;;;;;;8.13;7.33;;;;;;;1.39;84.10;100310.36;1691244;82;20985;-57
2021/12/14 04:52:14;;;;;;;7.33;6.55;;;;;;;1.38;84.81;100319.45;1693896;82;21493;-58
2021/12/14 04:54:46;;;;;;;8.58;7.10;;;;;;;1.40;84.87;100317.73;1731255;81;21968;-58
2021/12/14 04:57:37;;;;;;;8.43;7.50;;;;;;;1.41;84.69;100321.59;1735081;81;21601;-58
2021/12/14 05:00:29;;;;;;;9.80;7.40;;;;;;;1.39;84.50;100322.45;1710365;82;21483;-58
2021/12/14 05:03:06;;;;;;;8.73;7.90;;;;;;;1.42;84.41;100322.05;1735399;82;21469;-59
2021/12/14 05:05:40;;;;;;;8.55;7.70;;;;;;;1.53;84.25;100324.27;1714720;80;20999;-59
2021/12/14 05:11:07;;;;;;;9.10;7.40;;;;;;;1.54;84.03;100338.08;1731874;81;21523;-59
2021/12/14 05:13:46;;;;;;;7.75;6.95;;;;;;;1.49;83.91;100338.08;1694277;82;21498;-59
2021/12/14 05:16:21;;;;;;;9.23;6.95;;;;;;;1.45;83.73;100338.92;1730616;81;21483;-57
2021/12/14 05:18:52;;;;;;;7.53;6.83;;;;;;;1.47;83.69;100334.61;1724738;81;21529;-58
2021/12/14 05:21:35;;;;;;;7.53;6.83;;;;;;;1.49;83.81;100341.96;1726195;81;21803;-58
2021/12/14 05:24:05;;;;;;;8.23;7.45;;;;;;;1.42;83.81;100344.08;1700627;82;21501;-58
2021/12/14 05:26:35;;;;;;;7.80;7.00;;;;;;;1.39;84.11;100342.75;1727270;82;21625;-58
2021/12/14 05:29:04;;;;;;;7.83;7.00;;;;;;;1.39;84.13;100340.16;1691933;82;21505;-59
2021/12/14 05:31:31;;;;;;;8.85;7.40;;;;;;;1.43;84.01;100343.23;1727118;81;20931;-58
2021/12/14 05:33:59;;;;;;;8.65;7.17;;;;;;;1.49;83.91;100340.66;1730530;81;21934;-58
2021/12/14 05:36:31;;;;;;;7.67;6.85;;;;;;;1.53;83.87;100346.73;1721729;81;21392;-59
2021/12/14 05:39:06;;;;;;;9.50;6.85;;;;;;;1.51;83.76;100346.72;1700676;82;21592;-58
2021/12/14 05:44:24;;;;;;;8.13;7.28;;;;;;;1.47;83.87;100341.09;1728755;81;21558;-59
2021/12/14 05:46:54;;;;;;;7.47;6.67;;;;;;;1.56;83.72;100349.32;1730477;82;21762;-59
2021/12/14 05:49:28;;;;;;;7.15;6.35;;;;;;;1.62;83.40;100342.00;1729443;81;21408;-58
2021/12/14 05:51:57;;;;;;;9.18;7.70;;;;;;;1.61;83.46;100348.06;1726140;81;21460;-58
2021/12/14 05:54:30;;;;;;;8.40;7.53;;;;;;;1.59;83.47;100352.37;1693816;83;21475;-58
2021/12/14 05:56:59;;;;;;;8.08;7.28;;;;;;;1.54;83.37;100358.41;1725180;81;21412;-59
2021/12/14 05:59:31;;;;;;;8.30;7.50;;;;;;;1.50;83.25;100356.63;1696129;82;21780;-58
2021/12/14 06:01:59;;;;;;;10.10;6.92;;;;;;;1.48;83.18;100353.61;1731523;82;21638;-59
2021/12/14 06:04:30;;;;;;;7.45;6.72;;;;;;;1.51;83.44;100354.94;1735369;81;21671;-59
2021/12/14 06:06:56;;;;;;;8.73;7.87;;;;;;;1.51;83.39;100353.20;1738025;80;21495;-59
2021/12/14 06:09:31;;;;;;;9.05;7.67;;;;;;;1.45;83.35;100354.47;1744595;80;21495;-59
2021/12/14 06:12:04;;;;;;;7.97;6.87;;;;;;;1.31;83.60;100362.58;1705896;82;21527;-59
2021/12/14 06:14:32;;;;;;;7.62;6.92;;;;;;;1.27;83.71;100354.35;1678457;83;21016;-59
2021/12/14 06:17:03;;;;;;;8.47;7.03;;;;;;;1.32;84.02;100355.26;1710241;80;21575;-58
2021/12/14 06:19:36;;;;;;;7.92;7.03;;;;;;;1.38;83.83;100358.31;1704904;83;21577;-59
2021/12/14 06:22:11;;;;;;;8.03;7.22;;;;;;;1.37;84.16;100360.02;1709737;82;21044;-59
2021/12/14 06:24:48;;;;;;;10.03;7.65;;;;;;;1.34;84.11;100358.28;1702850;82;21851;-59
2021/12/14 06:27:18;;;;;;;9.38;6.97;;;;;;;1.31;84.04;100361.28;1706935;82;21552;-59
2021/12/14 06:29:58;;;;;;;8.35;7.35;;;;;;;1.29;84.10;100364.30;1707101;82;21549;-59
2021/12/14 06:32:30;;;;;;;8.58;7.17;;;;;;;1.37;84.10;100365.20;1711318;82;21083;-59
2021/12/14 06:35:06;;;;;;;8.40;7.42;;;;;;;1.41;83.88;100368.68;1704652;83;21482;-59
2021/12/14 06:40:36;;;;;;;9.30;7.83;;;;;;;1.27;84.09;100374.64;1702853;82;21532;-58
2021/12/14 06:43:14;;;;;;;7.50;6.80;;;;;;;1.28;84.23;100376.80;1708189;82;21536;-59
2021/12/14 06:45:45;;;;;;;9.00;7.47;;;;;;;1.35;84.02;100372.09;1676462;82;21422;-59
2021/12/14 06:48:21;;;;;;;9.15;7.47;;;;;;;1.42;84.06;100375.61;1691235;83;21493;-62
2021/12/14 06:51:00;;;;;;;9.83;8.15;;;;;;;1.42;84.22;100369.99;1664913;83;21472;-59
2021/12/14 06:53:31;;;;;;;8.95;8.05;;;;;;;1.38;84.00;100369.54;1690296;83;21490;-60
2021/12/14 06:56:02;;;;;;;9.35;7.90;;;;;;;1.32;83.99;100363.89;1685952;83;21598;-60
2021/12/14 06:58:53;;;;;;;10.15;7.65;;;;;;;1.29;83.82;100361.70;1611246;86;21521;-58
2021/12/14 07:01:35;;;;;;;9.60;7.22;;;;;;;1.34;83.98;100363.47;1665364;82;21485;-60
2021/12/14 07:04:06;;;;;;;9.55;8.33;;;;;;;1.38;84.04;100356.58;1689370;83;21504;-57
2021/12/14 07:06:53;;;;;;;8.73;7.83;;;;;;;1.38;84.22;100368.24;1661659;84;21431;-57
2021/12/14 07:09:26;;;;;;;9.55;7.55;;;;;;;1.32;84.16;100361.30;1686318;82;21449;-57
2021/12/14 07:12:12;;;;;;;8.40;7.42;;;;;;;1.32;84.36;100371.66;1688096;83;21617;-56
2021/12/14 07:15:02;;;;;;;8.73;7.42;;;;;;;1.42;84.35;100374.31;1686656;82;21034;-58
2021/12/14 07:17:40;;;;;;;9.00;7.90;;;;;;;1.50;84.05;100368.73;1684994;82;21808;-57
2021/12/14 07:20:17;;;;;;;8.35;7.50;;;;;;;1.49;84.23;100374.36;1686859;83;21556;-60
2021/12/14 07:22:47;;;;;;;10.40;7.65;;;;;;;1.50;84.03;100374.78;1664279;82;21684;-59
2021/12/14 07:25:20;;;;;;;8.38;7.50;;;;;;;1.42;83.94;100374.31;1684524;82;21038;-59
2021/12/14 07:27:50;;;;;;;10.45;7.75;;;;;;;1.45;84.14;100377.80;1687865;83;21491;-57
2021/12/14 07:30:34;;;;;;;11.18;9.18;;;;;;;1.57;83.84;100382.17;1687452;83;21852;-58
2021/12/14 07:33:10;;;;;;;10.98;9.10;;;;;;;1.60;83.60;100381.31;1687826;82;21643;-59
2021/12/14 07:36:04;;;;;;;9.20;8.33;;;;;;;1.57;83.56;100386.50;1686007;83;21579;-57
2021/12/14 07:38:47;;;;;;;12.07;9.18;;;;;;;1.55;83.70;100383.45;1686348;82;21675;-56
2021/12/14 07:41:32;;;;;;;11.25;9.23;;;;;;;1.56;83.69;100380.42;1684621;82;21566;-57
2021/12/14 07:44:04;;;;;;;10.82;9.70;;;;;;;1.61;83.29;100376.58;1685614;82;21825;-58
2021/12/14 07:46:42;;;;;;;12.35;9.65;;;;;;;1.66;83.18;100381.38;1658930;83;21595;-60
2021/12/14 07:49:19;;;;;;;10.68;9.38;;;;;;;1.67;83.06;100383.09;1727126;80;21491;-58
2021/12/14 07:51:48;;;;;;;11.12;9.95;;;;;;;1.60;83.06;100384.80;1736178;80;21502;-58
2021/12/14 07:54:19;;;;;;;11.08;9.83;;;;;;;1.58;83.04;100389.52;1739444;80;21592;-58
2021/12/14 07:56:49;;;;;;;13.43;10.30;;;;;;;1.50;83.04;100388.17;1694582;82;22049;-58
2021/12/14 07:59:24;;;;;;;10.98;8.90;;;;;;;1.53;83.21;100391.66;1733922;80;21763;-57
2021/12/14 08:02:11;;;;;;;13.13;10.00;;;;;;;1.59;83.04;100386.94;1737210;81;21501;-58
2021/12/14 08:04:41;;;;;;;13.00;10.15;;;;;;;1.61;83.30;100383.92;1721637;81;21584;-57
2021/12/14 08:07:08;;;;;;;12.73;10.10;;;;;;;1.58;83.00;100384.33;1741601;80;21415;-57
2021/12/14 08:09:48;;;;;;;13.15;11.40;;;;;;;1.54;83.12;100387.33;1740335;80;21880;-57
2021/12/14 08:12:37;;;;;;;12.13;9.53;;;;;;;1.55;83.41;100391.23;1739178;80;21541;-58
2021/12/14 08:15:12;;;;;;;12.20;10.90;;;;;;;1.68;83.33;100387.42;1686356;82;21537;-57
2021/12/14 08:17:41;;;;;;;13.53;10.90;;;;;;;1.79;83.15;100388.35;1678704;83;21469;-57
2021/12/14 08:20:12;;;;;;;13.75;10.98;;;;;;;1.77;82.88;100388.74;1690532;83;20997;-58
2021/12/14 08:22:42;;;;;;;15.35;10.85;;;;;;;1.77;82.80;100386.59;1677143;84;21811;-55
2021/12/14 08:25:10;;;;;;;12.75;10.35;;;;;;;1.74;82.64;100392.20;1694689;83;21439;-55
2021/12/14 08:27:38;;;;;;;12.88;10.63;;;;;;;1.77;82.63;100387.45;1694074;83;21538;-57
2021/12/14 08:30:11;;;;;;;14.27;10.80;;;;;;;1.88;82.46;100381.02;1688032;82;21592;-57
2021/12/14 08:32:39;;;;;;;13.68;11.33;;;;;;;1.91;82.37;100387.09;1693554;82;21566;-56
2021/12/14 08:35:11;;;;;;;12.25;10.93;;;;;;;1.89;82.31;100386.22;1698982;82;21824;-57
2021/12/14 08:37:50;;;;;;;12.07;10.63;;;;;;;1.88;82.31;100386.21;1694469;83;21136;-57
2021/12/14 08:40:31;;;;;;;13.08;10.65;;;;;;;1.88;82.34;100387.06;1681833;83;21543;-57
2021/12/14 08:43:13;;;;;;;13.48;10.45;;;;;;;1.89;81.96;100382.33;1676448;83;21544;-57
2021/12/14 08:45:54;;;;;;;15.75;11.33;;;;;;;1.99;81.93;100383.23;1693037;82;21070;-58
2021/12/14 08:48:35;;;;;;;14.78;11.33;;;;;;;2.00;81.80;100383.68;1673563;83;21797;-57
2021/12/14 08:51:14;;;;;;;15.35;11.08;;;;;;;1.96;81.70;100383.23;1692361;82;21568;-59
2021/12/14 08:53:45;;;;;;;14.20;11.33;;;;;;;1.94;81.89;100386.23;1692640;82;21463;-58
2021/12/14 08:56:13;;;;;;;12.13;10.38;;;;;;;1.93;81.93;100381.48;1719537;82;21438;-58
2021/12/14 08:58:40;;;;;;;12.53;10.20;;;;;;;1.94;81.75;100384.93;1681011;83;21544;-58
2021/12/14 09:01:14;;;;;;;13.00;10.68;;;;;;;2.02;81.78;100386.28;1683790;83;21769;-57
2021/12/14 09:03:45;;;;;;;20.37;11.05;;;;;;;2.04;81.56;100380.23;1683745;84;21563;-57
2021/12/14 09:06:19;;;;;;;12.78;10.40;;;;;;;2.02;81.56;100381.95;1686391;84;21445;-57
2021/12/14 09:08:48;;;;;;;12.05;10.65;;;;;;;2.00;81.70;100379.79;1671084;83;21463;-57
2021/12/14 09:11:17;;;;;;;12.65;10.78;;;;;;;1.99;81.53;100373.30;1737591;80;20944;-57
2021/12/14 09:13:44;;;;;;;12.70;11.45;;;;;;;2.00;81.68;100379.79;1736392;80;21906;-56
2021/12/14 09:16:16;;;;;;;11.90;10.03;;;;;;;2.09;81.49;100377.64;1740113;82;21018;-57
2021/12/14 09:18:48;;;;;;;11.83;10.30;;;;;;;2.11;81.39;100371.61;1731463;80;21530;-57
2021/12/14 09:21:20;;;;;;;11.15;9.93;;;;;;;2.11;81.39;100375.51;1731500;80;21491;-56
2021/12/14 09:23:51;;;;;;;13.10;11.55;;;;;;;2.09;81.29;100377.64;1673626;84;20987;-58
2021/12/14 09:26:22;;;;;;;11.43;10.23;;;;;;;2.07;81.35;100375.47;1732614;80;22036;-58
2021/12/14 09:28:49;;;;;;;11.12;9.88;;;;;;;2.05;81.18;100379.80;1726194;80;21474;-57
2021/12/14 09:31:23;;;;;;;11.57;10.35;;;;;;;2.07;81.29;100380.66;1729861;81;21510;-57
2021/12/14 09:33:51;;;;;;;12.05;10.08;;;;;;;2.08;81.36;100381.97;1740807;80;21457;-57
2021/12/14 09:36:17;;;;;;;13.80;10.53;;;;;;;2.03;81.51;100374.59;1695642;83;21480;-57
2021/12/14 09:38:55;;;;;;;15.18;12.53;;;;;;;2.00;81.83;100375.01;1733514;80;21809;-56
2021/12/14 09:41:27;;;;;;;12.37;11.08;;;;;;;1.99;81.85;100373.30;1734443;80;21435;-56
2021/12/14 09:43:54;;;;;;;14.00;10.93;;;;;;;2.02;81.84;100372.02;1738833;80;20983;-58
2021/12/14 09:46:22;;;;;;;13.78;11.57;;;;;;;2.09;81.85;100374.64;1739204;80;21553;-57
2021/12/14 09:48:53;;;;;;;14.55;11.08;;;;;;;2.19;81.46;100372.08;1740537;80;21522;-58
2021/12/14 09:51:25;;;;;;;14.60;11.55;;;;;;;2.14;81.34;100369.45;1740435;80;21803;-59
2021/12/14 09:53:55;;;;;;;13.58;11.25;;;;;;;2.10;81.40;100368.57;1742239;79;21418;-59
2021/12/14 09:56:23;;;;;;;14.60;11.50;;;;;;;2.10;81.48;100366.42;1734626;80;21506;-57
2021/12/14 09:58:58;;;;;;;14.03;11.57;;;;;;;2.09;81.35;100358.19;1739484;80;21502;-57
2021/12/14 10:01:32;;;;;;;14.03;11.15;;;;;;;2.13;81.46;100363.41;1711798;82;21621;-59
2021/12/14 10:04:03;;;;;;;12.18;10.88;;;;;;;2.23;81.17;100358.25;1730720;80;21571;-57
2021/12/14 10:06:31;;;;;;;15.63;12.00;;;;;;;2.25;81.10;100361.70;1738168;81;21468;-58
2021/12/14 10:09:04;;;;;;;14.90;11.43;;;;;;;2.22;81.15;100350.02;1731820;80;21501;-57
2021/12/14 10:11:49;;;;;;;15.20;11.68;;;;;;;2.20;81.17;100356.93;1735187;80;21451;-58
2021/12/14 10:14:11;;;;;;;17.12;10.75;;;;;;;2.18;81.21;100358.22;1735674;80;21420;-58
2021/12/14 10:16:38;;;;;;;15.03;10.70;;;;;;;2.20;81.08;100356.48;1734805;80;21809;-58
2021/12/14 10:19:13;;;;;;;15.72;10.53;;;;;;;2.27;80.76;100355.64;1736660;80;21499;-57
2021/12/14 10:21:45;;;;;;;13.65;11.08;;;;;;;2.30;80.81;100358.70;1740633;80;21523;-58
2021/12/14 10:24:13;;;;;;;15.88;12.53;;;;;;;2.26;80.99;100352.63;1739259;80;20960;-58
2021/12/14 10:26:45;;;;;;;16.62;12.13;;;;;;;2.26;80.99;100349.15;1736622;80;21506;-58
2021/12/14 10:29:12;;;;;;;14.68;11.68;;;;;;;2.24;80.73;100342.69;1732295;80;22092;-57
2021/12/14 10:31:44;;;;;;;14.45;10.53;;;;;;;2.31;80.63;100333.17;1737512;80;21068;-57
2021/12/14 10:34:19;;;;;;;12.13;10.40;;;;;;;2.31;80.63;100333.17;1732365;80;21045;-58
2021/12/14 10:36:51;;;;;;;15.00;11.12;;;;;;;2.34;80.71;100339.67;1737634;80;21576;-56
2021/12/14 10:42:39;;;;;;;16.57;11.93;;;;;;;2.31;80.85;100341.81;1733551;80;21041;-56
2021/12/14 10:44:45;;;;;;;13.22;11.08;;;;;;;2.26;80.73;100332.28;1729142;80;21491;-55
2021/12/14 10:47:13;;;;;;;16.95;11.00;;;;;;;2.26;80.75;100334.47;1740380;80;21440;-56
2021/12/14 10:49:40;;;;;;;12.40;11.00;;;;;;;2.32;80.68;100334.47;1735851;80;21506;-57
2021/12/14 10:52:14;;;;;;;14.45;11.15;;;;;;;2.36;80.43;100335.34;1741242;82;21518;-56
2021/12/14 10:54:47;;;;;;;12.85;10.70;;;;;;;2.32;80.35;100338.80;1736167;80;21716;-56
2021/12/14 10:57:18;;;;;;;13.95;10.80;;;;;;;2.25;80.51;100336.61;1733589;80;21033;-56
2021/12/14 10:59:47;;;;;;;17.10;11.35;;;;;;;2.21;80.59;100332.73;1735269;80;21037;-57
2021/12/14 11:02:14;;;;;;;14.15;10.75;;;;;;;2.20;80.66;100334.44;1741457;80;21030;-56
2021/12/14 11:04:54;;;;;;;13.70;11.15;;;;;;;2.20;80.69;100338.77;1734474;80;21541;-57
2021/12/14 11:07:28;;;;;;;14.47;10.70;;;;;;;2.18;80.79;100336.16;1727863;80;21863;-56
2021/12/14 11:10:11;;;;;;;17.07;11.57;;;;;;;2.15;80.94;100336.17;1738752;82;20939;-57
2021/12/14 11:12:41;;;;;;;13.30;11.28;;;;;;;2.11;81.05;100343.08;1720985;81;21011;-56
2021/12/14 11:15:16;;;;;;;13.75;10.98;;;;;;;2.09;81.11;100343.91;1735842;80;20971;-56
2021/12/14 11:20:36;;;;;;;13.22;10.45;;;;;;;2.19;80.96;100336.61;1734000;80;21414;-55
2021/12/14 11:23:12;;;;;;;14.80;11.43;;;;;;;2.21;80.83;100334.88;1733687;80;21483;-56
2021/12/14 11:25:53;;;;;;;14.93;12.30;;;;;;;2.19;80.84;100339.64;1730359;80;21613;-56
2021/12/14 11:28:34;;;;;;;14.00;11.78;;;;;;;2.11;80.88;100337.00;1730955;80;21132;-55
2021/12/14 11:31:31;;;;;;;14.13;11.50;;;;;;;2.08;81.09;100339.16;1732912;80;21591;-56
2021/12/14 11:34:09;;;;;;;12.93;10.85;;;;;;;2.10;81.28;100346.95;1730431;81;21761;-56
2021/12/14 11:36:48;;;;;;;15.13;11.65;;;;;;;2.14;80.86;100339.17;1712912;82;21539;-56
2021/12/14 11:39:25;;;;;;;14.20;11.38;;;;;;;2.10;80.90;100341.77;1705081;82;21495;-57
2021/12/14 11:41:59;;;;;;;13.68;10.98;;;;;;;2.06;80.95;100342.63;1667233;84;21579;-57
2021/12/14 11:44:47;;;;;;;14.53;11.30;;;;;;;2.03;81.14;100339.58;1673418;84;21462;-57
2021/12/14 11:50:34;;;;;;;11.35;9.70;;;;;;;1.98;81.05;100344.31;1668861;84;21427;-56
2021/12/14 11:53:11;;;;;;;;;;;;;;;2.02;81.14;100344.78;1671287;84;21029;-55
2021/12/14 11:55:58;;;;;;;11.30;10.10;;;;;;;1.94;81.49;100343.43;1674787;83;20633;-57
2021/12/14 11:58:36;;;;;;;13.28;10.43;;;;;;;1.87;81.82;100345.16;1670817;84;21621;-57
2021/12/14 12:01:32;;;;;;;14.30;10.32;;;;;;;1.84;81.95;100342.53;1672140;84;21857;-57
2021/12/14 12:04:07;;;;;;;13.05;10.53;;;;;;;1.85;81.99;100342.98;1668367;84;21246;-57
2021/12/14 12:09:35;;;;;;;13.55;10.05;;;;;;;1.95;81.97;100341.29;1670516;84;21488;-58
2021/12/14 12:12:13;;;;;;;13.25;10.25;;;;;;;1.93;82.04;100339.98;1669158;84;21175;-58
2021/12/14 12:15:03;;;;;;;17.17;11.20;;;;;;;1.88;82.09;100340.38;1672011;84;21741;-57
2021/12/14 12:17:41;;;;;;;15.72;11.05;;;;;;;1.82;81.85;100340.38;1674829;84;21586;-58
2021/12/14 12:20:33;;;;;;;20.23;11.63;;;;;;;1.86;82.10;100344.70;1672954;83;21503;-59
2021/12/14 12:23:12;;;;;;;20.00;11.40;;;;;;;1.78;82.33;100341.22;1670752;84;21515;-59
2021/12/14 12:25:54;;;;;;;19.87;13.48;;;;;;;1.68;83.02;100342.06;1717624;81;21396;-58
2021/12/14 12:28:28;;;;;;;21.25;12.98;;;;;;;1.66;82.95;100345.94;1711299;81;21764;-58
2021/12/14 12:31:06;;;;;;;16.65;12.33;;;;;;;1.61;82.98;100345.03;1697165;81;21576;-58
2021/12/14 12:33:44;;;;;;;20.88;13.03;;;;;;;1.62;83.29;100343.30;1717545;82;21476;-58
2021/12/14 12:36:28;;;;;;;21.90;13.00;;;;;;;1.61;83.36;100345.47;1705090;82;21420;-58